sensor_id;sensor_type;location;lat;lon;timestamp;P1;durP1;ratioP1;P2;durP2;ratioP2
69991;SDS011;57332;51.320;-0.580;2022-07-05T00:01:45;5.25;;;2.60;;
69991;SDS011;57332;51.320;-0.580;2022-07-05T00:04:14;5.25;;;2.30;;
69991;SDS011;57332;51.320;-0.580;2022-07-05T00:06:50;4.85;;;2.10;;
69991;SDS011;57332;51.320;-0.580;2022-07-05T00:09:37;4.18;;;2.05;;
69991;SDS011;57332;51.320;-0.580;2022-07-05T00:12:04;2.92;;;1.83;;
69991;SDS011;57332;51.320;-0.580;2022-07-05T00:14:31;3.67;;;1.70;;
69991;SDS011;57332;51.320;-0.580;2022-07-05T00:16:58;2.65;;;1.40;;
69991;SDS011;57332;51.320;-0.580;2022-07-05T00:19:27;3.35;;;1.73;;
69991;SDS011;57332;51.320;-0.580;2022-07-05T00:21:54;2.75;;;1.70;;
69991;SDS011;57332;51.320;-0.580;2022-07-05T00:24:22;3.30;;;1.50;;
69991;SDS011;57332;51.320;-0.580;2022-07-05T00:26:49;2.70;;;1.50;;
69991;SDS011;57332;51.320;-0.580;2022-07-05T00:29:16;2.17;;;1.48;;
69991;SDS011;57332;51.320;-0.580;2022-07-05T00:31:43;2.47;;;1.30;;
69991;SDS011;57332;51.320;-0.580;2022-07-05T00:34:10;3.08;;;1.40;;
69991;SDS011;57332;51.320;-0.580;2022-07-05T00:36:37;2.20;;;1.20;;
69991;SDS011;57332;51.320;-0.580;2022-07-05T00:39:04;1.83;;;1.20;;
69991;SDS011;57332;51.320;-0.580;2022-07-05T00:41:31;2.20;;;1.30;;
69991;SDS011;57332;51.320;-0.580;2022-07-05T00:44:00;2.92;;;1.35;;
69991;SDS011;57332;51.320;-0.580;2022-07-05T00:46:27;2.35;;;1.23;;
69991;SDS011;57332;51.320;-0.580;2022-07-05T00:48:54;3.50;;;1.27;;
69991;SDS011;57332;51.320;-0.580;2022-07-05T00:51:22;1.92;;;1.17;;
69991;SDS011;57332;51.320;-0.580;2022-07-05T00:53:49;2.22;;;1.33;;
69991;SDS011;57332;51.320;-0.580;2022-07-05T00:56:17;1.58;;;1.20;;
69991;SDS011;57332;51.320;-0.580;2022-07-05T00:58:45;1.98;;;1.23;;
69991;SDS011;57332;51.320;-0.580;2022-07-05T01:01:12;1.55;;;1.10;;
69991;SDS011;57332;51.320;-0.580;2022-07-05T01:03:40;2.13;;;1.35;;
69991;SDS011;57332;51.320;-0.580;2022-07-05T01:06:07;2.47;;;1.30;;
69991;SDS011;57332;51.320;-0.580;2022-07-05T01:08:37;1.98;;;1.30;;
69991;SDS011;57332;51.320;-0.580;2022-07-05T01:11:04;1.67;;;1.13;;
69991;SDS011;57332;51.320;-0.580;2022-07-05T01:13:31;1.80;;;1.35;;
69991;SDS011;57332;51.320;-0.580;2022-07-05T01:15:59;3.22;;;1.20;;
69991;SDS011;57332;51.320;-0.580;2022-07-05T01:18:26;3.22;;;1.13;;
69991;SDS011;57332;51.320;-0.580;2022-07-05T01:20:53;2.08;;;1.25;;
69991;SDS011;57332;51.320;-0.580;2022-07-05T01:23:20;1.60;;;1.20;;
69991;SDS011;57332;51.320;-0.580;2022-07-05T01:25:48;3.58;;;1.40;;
69991;SDS011;57332;51.320;-0.580;2022-07-05T01:28:15;2.15;;;1.17;;
69991;SDS011;57332;51.320;-0.580;2022-07-05T01:30:42;2.38;;;1.40;;
69991;SDS011;57332;51.320;-0.580;2022-07-05T01:33:09;2.72;;;1.40;;
69991;SDS011;57332;51.320;-0.580;2022-07-05T01:35:36;1.70;;;1.10;;
69991;SDS011;57332;51.320;-0.580;2022-07-05T01:38:03;1.92;;;1.08;;
69991;SDS011;57332;51.320;-0.580;2022-07-05T01:40:30;2.13;;;1.23;;
69991;SDS011;57332;51.320;-0.580;2022-07-05T01:42:58;2.15;;;1.13;;
69991;SDS011;57332;51.320;-0.580;2022-07-05T01:45:25;2.20;;;1.20;;
69991;SDS011;57332;51.320;-0.580;2022-07-05T01:48:09;3.55;;;1.15;;
69991;SDS011;57332;51.320;-0.580;2022-07-05T01:50:41;2.03;;;1.25;;
69991;SDS011;57332;51.320;-0.580;2022-07-05T01:53:19;2.25;;;1.10;;
69991;SDS011;57332;51.320;-0.580;2022-07-05T01:55:46;3.88;;;1.40;;
69991;SDS011;57332;51.320;-0.580;2022-07-05T01:58:13;1.92;;;1.40;;
69991;SDS011;57332;51.320;-0.580;2022-07-05T02:00:41;3.78;;;1.35;;
69991;SDS011;57332;51.320;-0.580;2022-07-05T02:03:08;2.05;;;1.20;;
69991;SDS011;57332;51.320;-0.580;2022-07-05T02:05:36;2.47;;;1.30;;
69991;SDS011;57332;51.320;-0.580;2022-07-05T02:08:03;2.05;;;1.15;;
69991;SDS011;57332;51.320;-0.580;2022-07-05T02:10:34;3.38;;;1.27;;
69991;SDS011;57332;51.320;-0.580;2022-07-05T02:13:01;2.65;;;1.75;;
69991;SDS011;57332;51.320;-0.580;2022-07-05T02:15:32;2.15;;;1.25;;
69991;SDS011;57332;51.320;-0.580;2022-07-05T02:17:59;2.28;;;1.40;;
69991;SDS011;57332;51.320;-0.580;2022-07-05T02:20:28;2.17;;;1.17;;
69991;SDS011;57332;51.320;-0.580;2022-07-05T02:22:55;2.45;;;1.33;;
69991;SDS011;57332;51.320;-0.580;2022-07-05T02:25:22;2.55;;;1.33;;
69991;SDS011;57332;51.320;-0.580;2022-07-05T02:27:50;2.00;;;1.10;;
69991;SDS011;57332;51.320;-0.580;2022-07-05T02:30:17;2.53;;;1.10;;
69991;SDS011;57332;51.320;-0.580;2022-07-05T02:32:44;2.50;;;1.45;;
69991;SDS011;57332;51.320;-0.580;2022-07-05T02:35:12;1.77;;;1.02;;
69991;SDS011;57332;51.320;-0.580;2022-07-05T02:37:39;2.22;;;1.23;;
69991;SDS011;57332;51.320;-0.580;2022-07-05T02:40:09;4.53;;;1.50;;
69991;SDS011;57332;51.320;-0.580;2022-07-05T02:42:37;3.03;;;1.30;;
69991;SDS011;57332;51.320;-0.580;2022-07-05T02:45:04;2.05;;;1.10;;
69991;SDS011;57332;51.320;-0.580;2022-07-05T02:47:32;2.22;;;1.20;;
69991;SDS011;57332;51.320;-0.580;2022-07-05T02:50:02;1.75;;;1.20;;
69991;SDS011;57332;51.320;-0.580;2022-07-05T02:52:29;1.80;;;1.20;;
69991;SDS011;57332;51.320;-0.580;2022-07-05T02:54:56;1.75;;;1.10;;
69991;SDS011;57332;51.320;-0.580;2022-07-05T02:57:23;2.80;;;1.00;;
69991;SDS011;57332;51.320;-0.580;2022-07-05T02:59:52;2.20;;;1.10;;
69991;SDS011;57332;51.320;-0.580;2022-07-05T03:02:19;2.17;;;1.10;;
69991;SDS011;57332;51.320;-0.580;2022-07-05T03:04:46;2.10;;;1.05;;
69991;SDS011;57332;51.320;-0.580;2022-07-05T03:07:13;2.00;;;1.17;;
69991;SDS011;57332;51.320;-0.580;2022-07-05T03:09:40;2.67;;;1.20;;
69991;SDS011;57332;51.320;-0.580;2022-07-05T03:12:09;1.70;;;1.00;;
69991;SDS011;57332;51.320;-0.580;2022-07-05T03:14:36;2.38;;;1.38;;
69991;SDS011;57332;51.320;-0.580;2022-07-05T03:17:09;2.50;;;1.25;;
69991;SDS011;57332;51.320;-0.580;2022-07-05T03:19:36;4.45;;;2.00;;
69991;SDS011;57332;51.320;-0.580;2022-07-05T03:22:06;2.80;;;1.60;;
69991;SDS011;57332;51.320;-0.580;2022-07-05T03:24:33;3.40;;;2.00;;
69991;SDS011;57332;51.320;-0.580;2022-07-05T03:27:00;3.95;;;2.25;;
69991;SDS011;57332;51.320;-0.580;2022-07-05T03:29:26;5.88;;;2.83;;
69991;SDS011;57332;51.320;-0.580;2022-07-05T03:31:55;5.80;;;2.97;;
69991;SDS011;57332;51.320;-0.580;2022-07-05T03:34:23;8.82;;;5.20;;
69991;SDS011;57332;51.320;-0.580;2022-07-05T03:36:49;9.65;;;4.53;;
69991;SDS011;57332;51.320;-0.580;2022-07-05T03:39:17;11.23;;;5.63;;
69991;SDS011;57332;51.320;-0.580;2022-07-05T03:41:44;12.25;;;6.60;;
69991;SDS011;57332;51.320;-0.580;2022-07-05T03:44:11;16.27;;;8.23;;
69991;SDS011;57332;51.320;-0.580;2022-07-05T03:46:38;18.45;;;10.85;;
69991;SDS011;57332;51.320;-0.580;2022-07-05T03:49:05;21.23;;;11.35;;
69991;SDS011;57332;51.320;-0.580;2022-07-05T03:51:32;23.45;;;12.55;;
69991;SDS011;57332;51.320;-0.580;2022-07-05T03:53:59;25.42;;;14.75;;
69991;SDS011;57332;51.320;-0.580;2022-07-05T03:56:27;35.03;;;17.85;;
69991;SDS011;57332;51.320;-0.580;2022-07-05T03:58:54;33.60;;;18.83;;
69991;SDS011;57332;51.320;-0.580;2022-07-05T04:01:21;36.13;;;20.50;;
69991;SDS011;57332;51.320;-0.580;2022-07-05T04:03:48;42.85;;;23.13;;
69991;SDS011;57332;51.320;-0.580;2022-07-05T04:06:36;45.83;;;26.52;;
69991;SDS011;57332;51.320;-0.580;2022-07-05T04:09:03;59.72;;;31.42;;
69991;SDS011;57332;51.320;-0.580;2022-07-05T04:11:30;55.13;;;31.13;;
69991;SDS011;57332;51.320;-0.580;2022-07-05T04:13:57;59.28;;;32.13;;
69991;SDS011;57332;51.320;-0.580;2022-07-05T04:16:24;63.22;;;32.95;;
69991;SDS011;57332;51.320;-0.580;2022-07-05T04:18:52;65.35;;;34.25;;
69991;SDS011;57332;51.320;-0.580;2022-07-05T04:21:19;62.72;;;35.42;;
69991;SDS011;57332;51.320;-0.580;2022-07-05T04:23:46;65.22;;;35.90;;
69991;SDS011;57332;51.320;-0.580;2022-07-05T04:26:13;66.07;;;37.85;;
69991;SDS011;57332;51.320;-0.580;2022-07-05T04:28:41;74.47;;;39.55;;
69991;SDS011;57332;51.320;-0.580;2022-07-05T04:31:08;67.72;;;39.33;;
69991;SDS011;57332;51.320;-0.580;2022-07-05T04:33:35;74.00;;;41.28;;
69991;SDS011;57332;51.320;-0.580;2022-07-05T04:36:02;78.32;;;43.60;;
69991;SDS011;57332;51.320;-0.580;2022-07-05T04:38:30;83.28;;;44.42;;
69991;SDS011;57332;51.320;-0.580;2022-07-05T04:40:56;96.05;;;55.22;;
69991;SDS011;57332;51.320;-0.580;2022-07-05T04:43:23;101.72;;;58.85;;
69991;SDS011;57332;51.320;-0.580;2022-07-05T04:45:51;87.78;;;51.22;;
69991;SDS011;57332;51.320;-0.580;2022-07-05T04:48:22;90.22;;;50.88;;
69991;SDS011;57332;51.320;-0.580;2022-07-05T04:50:49;98.55;;;57.05;;
69991;SDS011;57332;51.320;-0.580;2022-07-05T04:53:16;98.57;;;56.67;;
69991;SDS011;57332;51.320;-0.580;2022-07-05T04:55:43;100.50;;;56.53;;
69991;SDS011;57332;51.320;-0.580;2022-07-05T04:58:16;97.35;;;57.70;;
69991;SDS011;57332;51.320;-0.580;2022-07-05T05:00:43;103.75;;;61.70;;
69991;SDS011;57332;51.320;-0.580;2022-07-05T05:03:10;105.47;;;59.97;;
69991;SDS011;57332;51.320;-0.580;2022-07-05T05:05:38;98.28;;;57.30;;
69991;SDS011;57332;51.320;-0.580;2022-07-05T05:08:05;102.95;;;59.42;;
69991;SDS011;57332;51.320;-0.580;2022-07-05T05:10:32;93.55;;;53.70;;
69991;SDS011;57332;51.320;-0.580;2022-07-05T05:12:59;85.40;;;48.22;;
69991;SDS011;57332;51.320;-0.580;2022-07-05T05:15:26;64.00;;;38.50;;
69991;SDS011;57332;51.320;-0.580;2022-07-05T05:17:56;63.53;;;35.97;;
69991;SDS011;57332;51.320;-0.580;2022-07-05T05:20:23;58.63;;;34.53;;
69991;SDS011;57332;51.320;-0.580;2022-07-05T05:22:50;61.33;;;36.03;;
69991;SDS011;57332;51.320;-0.580;2022-07-05T05:25:17;51.63;;;30.38;;
69991;SDS011;57332;51.320;-0.580;2022-07-05T05:27:45;51.67;;;30.27;;
69991;SDS011;57332;51.320;-0.580;2022-07-05T05:30:15;40.00;;;22.48;;
69991;SDS011;57332;51.320;-0.580;2022-07-05T05:32:43;35.75;;;20.83;;
69991;SDS011;57332;51.320;-0.580;2022-07-05T05:35:09;30.00;;;17.27;;
69991;SDS011;57332;51.320;-0.580;2022-07-05T05:37:50;23.85;;;13.25;;
69991;SDS011;57332;51.320;-0.580;2022-07-05T05:40:17;18.95;;;10.68;;
69991;SDS011;57332;51.320;-0.580;2022-07-05T05:42:44;14.65;;;8.63;;
69991;SDS011;57332;51.320;-0.580;2022-07-05T05:45:14;15.95;;;8.20;;
69991;SDS011;57332;51.320;-0.580;2022-07-05T05:47:44;13.15;;;7.20;;
69991;SDS011;57332;51.320;-0.580;2022-07-05T05:50:14;9.70;;;5.90;;
69991;SDS011;57332;51.320;-0.580;2022-07-05T05:52:44;7.05;;;3.60;;
69991;SDS011;57332;51.320;-0.580;2022-07-05T05:55:11;5.28;;;2.70;;
69991;SDS011;57332;51.320;-0.580;2022-07-05T05:57:38;3.58;;;2.10;;
69991;SDS011;57332;51.320;-0.580;2022-07-05T06:00:05;3.03;;;1.70;;
69991;SDS011;57332;51.320;-0.580;2022-07-05T06:02:33;3.83;;;1.70;;
69991;SDS011;57332;51.320;-0.580;2022-07-05T06:05:08;3.65;;;1.65;;
69991;SDS011;57332;51.320;-0.580;2022-07-05T06:07:45;3.50;;;1.52;;
69991;SDS011;57332;51.320;-0.580;2022-07-05T06:10:20;3.95;;;1.35;;
69991;SDS011;57332;51.320;-0.580;2022-07-05T06:12:50;2.90;;;1.40;;
69991;SDS011;57332;51.320;-0.580;2022-07-05T06:15:20;2.72;;;1.13;;
69991;SDS011;57332;51.320;-0.580;2022-07-05T06:17:49;3.90;;;1.40;;
69991;SDS011;57332;51.320;-0.580;2022-07-05T06:20:22;2.38;;;0.95;;
69991;SDS011;57332;51.320;-0.580;2022-07-05T06:27:01;3.97;;;1.50;;
69991;SDS011;57332;51.320;-0.580;2022-07-05T06:29:36;1.98;;;1.10;;
69991;SDS011;57332;51.320;-0.580;2022-07-05T06:32:44;1.98;;;1.05;;
69991;SDS011;57332;51.320;-0.580;2022-07-05T06:35:21;1.52;;;0.90;;
69991;SDS011;57332;51.320;-0.580;2022-07-05T06:37:55;1.73;;;1.10;;
69991;SDS011;57332;51.320;-0.580;2022-07-05T06:40:25;2.17;;;1.20;;
69991;SDS011;57332;51.320;-0.580;2022-07-05T06:42:53;4.90;;;1.23;;
69991;SDS011;57332;51.320;-0.580;2022-07-05T06:45:20;3.08;;;1.17;;
69991;SDS011;57332;51.320;-0.580;2022-07-05T06:47:57;2.85;;;1.20;;
69991;SDS011;57332;51.320;-0.580;2022-07-05T06:50:25;2.33;;;1.13;;
69991;SDS011;57332;51.320;-0.580;2022-07-05T06:52:52;3.85;;;1.08;;
69991;SDS011;57332;51.320;-0.580;2022-07-05T06:55:20;2.80;;;1.00;;
69991;SDS011;57332;51.320;-0.580;2022-07-05T06:57:47;2.33;;;1.00;;
69991;SDS011;57332;51.320;-0.580;2022-07-05T07:00:34;2.15;;;0.90;;
69991;SDS011;57332;51.320;-0.580;2022-07-05T07:03:21;3.13;;;1.00;;
69991;SDS011;57332;51.320;-0.580;2022-07-05T07:06:08;2.72;;;0.80;;
69991;SDS011;57332;51.320;-0.580;2022-07-05T07:08:35;3.03;;;0.90;;
69991;SDS011;57332;51.320;-0.580;2022-07-05T07:11:21;1.98;;;0.80;;
69991;SDS011;57332;51.320;-0.580;2022-07-05T07:13:47;1.27;;;0.80;;
69991;SDS011;57332;51.320;-0.580;2022-07-05T07:16:14;1.73;;;1.00;;
69991;SDS011;57332;51.320;-0.580;2022-07-05T07:18:41;1.73;;;0.90;;
69991;SDS011;57332;51.320;-0.580;2022-07-05T07:21:28;2.92;;;1.00;;
69991;SDS011;57332;51.320;-0.580;2022-07-05T07:23:55;1.88;;;0.80;;
69991;SDS011;57332;51.320;-0.580;2022-07-05T07:26:22;1.30;;;0.80;;
69991;SDS011;57332;51.320;-0.580;2022-07-05T07:28:49;2.35;;;1.25;;
69991;SDS011;57332;51.320;-0.580;2022-07-05T07:31:16;1.65;;;0.93;;
69991;SDS011;57332;51.320;-0.580;2022-07-05T07:33:43;1.35;;;1.10;;
69991;SDS011;57332;51.320;-0.580;2022-07-05T07:36:11;1.35;;;0.90;;
69991;SDS011;57332;51.320;-0.580;2022-07-05T07:38:41;1.60;;;0.80;;
69991;SDS011;57332;51.320;-0.580;2022-07-05T07:41:08;1.88;;;0.82;;
69991;SDS011;57332;51.320;-0.580;2022-07-05T07:43:35;2.50;;;0.80;;
69991;SDS011;57332;51.320;-0.580;2022-07-05T07:46:02;1.77;;;0.80;;
69991;SDS011;57332;51.320;-0.580;2022-07-05T07:48:32;2.05;;;1.00;;
69991;SDS011;57332;51.320;-0.580;2022-07-05T07:50:59;1.42;;;0.98;;
69991;SDS011;57332;51.320;-0.580;2022-07-05T07:53:26;1.88;;;0.73;;
69991;SDS011;57332;51.320;-0.580;2022-07-05T07:55:53;2.88;;;1.00;;
69991;SDS011;57332;51.320;-0.580;2022-07-05T07:58:20;1.83;;;0.77;;
69991;SDS011;57332;51.320;-0.580;2022-07-05T08:00:47;1.45;;;0.82;;
69991;SDS011;57332;51.320;-0.580;2022-07-05T08:03:14;2.33;;;0.80;;
69991;SDS011;57332;51.320;-0.580;2022-07-05T08:05:41;2.70;;;0.80;;
69991;SDS011;57332;51.320;-0.580;2022-07-05T08:08:08;1.45;;;0.85;;
69991;SDS011;57332;51.320;-0.580;2022-07-05T08:10:35;1.85;;;0.75;;
69991;SDS011;57332;51.320;-0.580;2022-07-05T08:13:02;1.92;;;0.90;;
69991;SDS011;57332;51.320;-0.580;2022-07-05T08:15:32;0.98;;;0.70;;
69991;SDS011;57332;51.320;-0.580;2022-07-05T08:17:59;1.42;;;0.80;;
69991;SDS011;57332;51.320;-0.580;2022-07-05T08:20:45;2.50;;;1.00;;
69991;SDS011;57332;51.320;-0.580;2022-07-05T08:23:33;2.42;;;1.00;;
69991;SDS011;57332;51.320;-0.580;2022-07-05T08:26:00;2.85;;;0.80;;
69991;SDS011;57332;51.320;-0.580;2022-07-05T08:28:27;1.88;;;0.80;;
69991;SDS011;57332;51.320;-0.580;2022-07-05T08:30:54;1.58;;;0.85;;
69991;SDS011;57332;51.320;-0.580;2022-07-05T08:33:24;2.38;;;0.95;;
69991;SDS011;57332;51.320;-0.580;2022-07-05T08:35:51;2.85;;;1.05;;
69991;SDS011;57332;51.320;-0.580;2022-07-05T08:38:18;1.67;;;0.90;;
69991;SDS011;57332;51.320;-0.580;2022-07-05T08:40:45;2.67;;;0.90;;
69991;SDS011;57332;51.320;-0.580;2022-07-05T08:43:13;1.83;;;1.00;;
69991;SDS011;57332;51.320;-0.580;2022-07-05T08:45:43;1.63;;;1.10;;
69991;SDS011;57332;51.320;-0.580;2022-07-05T08:48:10;2.00;;;0.80;;
69991;SDS011;57332;51.320;-0.580;2022-07-05T08:50:40;3.83;;;1.30;;
69991;SDS011;57332;51.320;-0.580;2022-07-05T08:53:07;1.77;;;0.90;;
69991;SDS011;57332;51.320;-0.580;2022-07-05T08:55:34;2.80;;;1.00;;
69991;SDS011;57332;51.320;-0.580;2022-07-05T08:58:01;2.20;;;1.10;;
69991;SDS011;57332;51.320;-0.580;2022-07-05T09:00:28;2.65;;;1.00;;
69991;SDS011;57332;51.320;-0.580;2022-07-05T09:02:57;2.60;;;1.08;;
69991;SDS011;57332;51.320;-0.580;2022-07-05T09:05:25;2.90;;;1.20;;
69991;SDS011;57332;51.320;-0.580;2022-07-05T09:07:59;2.38;;;1.00;;
69991;SDS011;57332;51.320;-0.580;2022-07-05T09:10:28;4.22;;;1.10;;
69991;SDS011;57332;51.320;-0.580;2022-07-05T09:12:58;1.75;;;0.95;;
69991;SDS011;57332;51.320;-0.580;2022-07-05T09:15:26;2.40;;;1.15;;
69991;SDS011;57332;51.320;-0.580;2022-07-05T09:17:53;2.00;;;1.00;;
69991;SDS011;57332;51.320;-0.580;2022-07-05T09:20:20;1.70;;;0.98;;
69991;SDS011;57332;51.320;-0.580;2022-07-05T09:22:51;2.85;;;1.00;;
69991;SDS011;57332;51.320;-0.580;2022-07-05T09:25:23;2.15;;;1.00;;
69991;SDS011;57332;51.320;-0.580;2022-07-05T09:27:55;2.05;;;0.90;;
69991;SDS011;57332;51.320;-0.580;2022-07-05T09:33:14;2.75;;;1.17;;
69991;SDS011;57332;51.320;-0.580;2022-07-05T09:35:42;2.13;;;1.10;;
69991;SDS011;57332;51.320;-0.580;2022-07-05T09:38:19;2.35;;;0.90;;
69991;SDS011;57332;51.320;-0.580;2022-07-05T09:40:50;2.88;;;1.10;;
69991;SDS011;57332;51.320;-0.580;2022-07-05T09:43:18;3.72;;;1.10;;
69991;SDS011;57332;51.320;-0.580;2022-07-05T09:45:56;3.88;;;1.25;;
69991;SDS011;57332;51.320;-0.580;2022-07-05T09:51:03;2.95;;;1.00;;
69991;SDS011;57332;51.320;-0.580;2022-07-05T09:53:51;2.95;;;1.00;;
69991;SDS011;57332;51.320;-0.580;2022-07-05T09:56:25;2.78;;;1.10;;
69991;SDS011;57332;51.320;-0.580;2022-07-05T09:59:20;3.97;;;1.00;;
69991;SDS011;57332;51.320;-0.580;2022-07-05T10:01:49;2.88;;;1.10;;
69991;SDS011;57332;51.320;-0.580;2022-07-05T10:04:16;1.95;;;1.05;;
69991;SDS011;57332;51.320;-0.580;2022-07-05T10:06:44;1.58;;;1.00;;
69991;SDS011;57332;51.320;-0.580;2022-07-05T10:09:11;2.30;;;1.00;;
69991;SDS011;57332;51.320;-0.580;2022-07-05T10:11:39;2.55;;;0.90;;
69991;SDS011;57332;51.320;-0.580;2022-07-05T10:14:09;2.38;;;1.00;;
69991;SDS011;57332;51.320;-0.580;2022-07-05T10:16:37;2.20;;;1.23;;
69991;SDS011;57332;51.320;-0.580;2022-07-05T10:19:15;4.05;;;1.00;;
69991;SDS011;57332;51.320;-0.580;2022-07-05T10:21:52;3.35;;;1.08;;
69991;SDS011;57332;51.320;-0.580;2022-07-05T10:24:42;5.22;;;3.58;;
69991;SDS011;57332;51.320;-0.580;2022-07-05T10:27:20;15.02;;;7.60;;
69991;SDS011;57332;51.320;-0.580;2022-07-05T10:30:03;11.65;;;6.57;;
69991;SDS011;57332;51.320;-0.580;2022-07-05T10:32:41;3.97;;;1.95;;
69991;SDS011;57332;51.320;-0.580;2022-07-05T10:35:11;3.10;;;1.25;;
69991;SDS011;57332;51.320;-0.580;2022-07-05T10:37:44;2.72;;;1.00;;
69991;SDS011;57332;51.320;-0.580;2022-07-05T10:40:12;2.50;;;0.90;;
69991;SDS011;57332;51.320;-0.580;2022-07-05T10:42:40;2.35;;;1.13;;
69991;SDS011;57332;51.320;-0.580;2022-07-05T10:48:11;2.40;;;0.90;;
69991;SDS011;57332;51.320;-0.580;2022-07-05T10:58:34;3.00;;;0.95;;
69991;SDS011;57332;51.320;-0.580;2022-07-05T11:03:40;1.38;;;0.90;;
69991;SDS011;57332;51.320;-0.580;2022-07-05T11:06:08;2.45;;;1.00;;
69991;SDS011;57332;51.320;-0.580;2022-07-05T11:09:13;1.60;;;0.93;;
69991;SDS011;57332;51.320;-0.580;2022-07-05T11:11:38;2.35;;;1.00;;
69991;SDS011;57332;51.320;-0.580;2022-07-05T11:14:33;2.10;;;1.00;;
69991;SDS011;57332;51.320;-0.580;2022-07-05T11:20:03;2.95;;;1.10;;
69991;SDS011;57332;51.320;-0.580;2022-07-05T11:22:31;1.65;;;0.90;;
69991;SDS011;57332;51.320;-0.580;2022-07-05T11:25:04;1.45;;;1.08;;
69991;SDS011;57332;51.320;-0.580;2022-07-05T11:27:34;2.17;;;1.13;;
69991;SDS011;57332;51.320;-0.580;2022-07-05T11:32:36;2.65;;;1.00;;
69991;SDS011;57332;51.320;-0.580;2022-07-05T11:35:16;2.03;;;1.00;;
69991;SDS011;57332;51.320;-0.580;2022-07-05T11:38:02;2.15;;;1.00;;
69991;SDS011;57332;51.320;-0.580;2022-07-05T11:40:49;1.45;;;1.00;;
69991;SDS011;57332;51.320;-0.580;2022-07-05T11:43:27;1.42;;;0.98;;
69991;SDS011;57332;51.320;-0.580;2022-07-05T11:45:58;3.22;;;0.93;;
69991;SDS011;57332;51.320;-0.580;2022-07-05T11:48:29;3.63;;;1.08;;
69991;SDS011;57332;51.320;-0.580;2022-07-05T11:51:14;2.25;;;1.00;;
69991;SDS011;57332;51.320;-0.580;2022-07-05T11:53:43;2.03;;;1.30;;
69991;SDS011;57332;51.320;-0.580;2022-07-05T11:56:30;2.97;;;0.90;;
69991;SDS011;57332;51.320;-0.580;2022-07-05T11:58:57;2.22;;;0.82;;
69991;SDS011;57332;51.320;-0.580;2022-07-05T12:01:24;3.65;;;1.15;;
69991;SDS011;57332;51.320;-0.580;2022-07-05T12:03:55;3.75;;;0.90;;
69991;SDS011;57332;51.320;-0.580;2022-07-05T12:06:22;1.00;;;0.80;;
69991;SDS011;57332;51.320;-0.580;2022-07-05T12:09:10;3.08;;;1.02;;
69991;SDS011;57332;51.320;-0.580;2022-07-05T12:11:37;1.42;;;0.90;;
69991;SDS011;57332;51.320;-0.580;2022-07-05T12:14:23;1.75;;;1.10;;
69991;SDS011;57332;51.320;-0.580;2022-07-05T12:17:36;2.92;;;1.10;;
69991;SDS011;57332;51.320;-0.580;2022-07-05T12:19:37;1.30;;;0.95;;
69991;SDS011;57332;51.320;-0.580;2022-07-05T12:22:07;3.33;;;1.00;;
69991;SDS011;57332;51.320;-0.580;2022-07-05T12:24:34;1.13;;;0.80;;
69991;SDS011;57332;51.320;-0.580;2022-07-05T12:27:07;2.22;;;1.00;;
69991;SDS011;57332;51.320;-0.580;2022-07-05T12:29:36;1.73;;;1.10;;
69991;SDS011;57332;51.320;-0.580;2022-07-05T12:32:04;2.53;;;1.00;;
69991;SDS011;57332;51.320;-0.580;2022-07-05T12:34:31;1.25;;;0.90;;
69991;SDS011;57332;51.320;-0.580;2022-07-05T12:37:03;1.55;;;0.90;;
69991;SDS011;57332;51.320;-0.580;2022-07-05T12:39:30;2.58;;;0.75;;
69991;SDS011;57332;51.320;-0.580;2022-07-05T12:41:57;3.08;;;0.82;;
69991;SDS011;57332;51.320;-0.580;2022-07-05T12:44:24;2.55;;;1.00;;
69991;SDS011;57332;51.320;-0.580;2022-07-05T12:46:51;3.03;;;0.90;;
69991;SDS011;57332;51.320;-0.580;2022-07-05T12:49:20;1.92;;;0.90;;
69991;SDS011;57332;51.320;-0.580;2022-07-05T12:51:47;3.33;;;0.95;;
69991;SDS011;57332;51.320;-0.580;2022-07-05T12:54:21;2.05;;;0.90;;
69991;SDS011;57332;51.320;-0.580;2022-07-05T12:57:14;3.45;;;1.00;;
69991;SDS011;57332;51.320;-0.580;2022-07-05T13:00:09;2.08;;;0.80;;
69991;SDS011;57332;51.320;-0.580;2022-07-05T13:02:40;2.33;;;1.00;;
69991;SDS011;57332;51.320;-0.580;2022-07-05T13:05:08;2.92;;;1.10;;
69991;SDS011;57332;51.320;-0.580;2022-07-05T13:07:41;1.35;;;0.95;;
69991;SDS011;57332;51.320;-0.580;2022-07-05T13:10:19;2.08;;;1.20;;
69991;SDS011;57332;51.320;-0.580;2022-07-05T13:15:25;2.50;;;0.90;;
69991;SDS011;57332;51.320;-0.580;2022-07-05T13:17:52;1.05;;;0.88;;
69991;SDS011;57332;51.320;-0.580;2022-07-05T13:20:20;1.70;;;0.80;;
69991;SDS011;57332;51.320;-0.580;2022-07-05T13:22:47;1.85;;;1.00;;
69991;SDS011;57332;51.320;-0.580;2022-07-05T13:25:14;3.55;;;0.88;;
69991;SDS011;57332;51.320;-0.580;2022-07-05T13:27:42;3.67;;;1.00;;
69991;SDS011;57332;51.320;-0.580;2022-07-05T13:30:09;2.63;;;1.00;;
69991;SDS011;57332;51.320;-0.580;2022-07-05T13:32:39;1.10;;;0.80;;
69991;SDS011;57332;51.320;-0.580;2022-07-05T13:35:06;1.20;;;0.73;;
69991;SDS011;57332;51.320;-0.580;2022-07-05T13:37:33;2.45;;;1.00;;
69991;SDS011;57332;51.320;-0.580;2022-07-05T13:40:00;2.75;;;1.15;;
69991;SDS011;57332;51.320;-0.580;2022-07-05T13:42:27;2.08;;;0.90;;
69991;SDS011;57332;51.320;-0.580;2022-07-05T13:44:54;1.70;;;0.88;;
69991;SDS011;57332;51.320;-0.580;2022-07-05T13:47:21;1.13;;;0.85;;
69991;SDS011;57332;51.320;-0.580;2022-07-05T13:49:48;3.00;;;1.00;;
69991;SDS011;57332;51.320;-0.580;2022-07-05T13:52:44;1.70;;;0.90;;
69991;SDS011;57332;51.320;-0.580;2022-07-05T13:55:11;2.60;;;0.80;;
69991;SDS011;57332;51.320;-0.580;2022-07-05T13:57:39;1.30;;;0.73;;
69991;SDS011;57332;51.320;-0.580;2022-07-05T14:00:06;1.38;;;0.80;;
69991;SDS011;57332;51.320;-0.580;2022-07-05T14:02:36;2.40;;;0.90;;
69991;SDS011;57332;51.320;-0.580;2022-07-05T14:05:03;2.05;;;0.98;;
69991;SDS011;57332;51.320;-0.580;2022-07-05T14:07:30;4.40;;;1.13;;
69991;SDS011;57332;51.320;-0.580;2022-07-05T14:09:57;1.73;;;0.80;;
69991;SDS011;57332;51.320;-0.580;2022-07-05T14:12:24;3.03;;;1.00;;
69991;SDS011;57332;51.320;-0.580;2022-07-05T14:14:51;2.67;;;0.90;;
69991;SDS011;57332;51.320;-0.580;2022-07-05T14:17:18;2.47;;;1.17;;
69991;SDS011;57332;51.320;-0.580;2022-07-05T14:19:45;3.63;;;0.90;;
69991;SDS011;57332;51.320;-0.580;2022-07-05T14:22:12;1.83;;;0.90;;
69991;SDS011;57332;51.320;-0.580;2022-07-05T14:24:39;1.98;;;0.70;;
69991;SDS011;57332;51.320;-0.580;2022-07-05T14:27:10;2.08;;;1.00;;
69991;SDS011;57332;51.320;-0.580;2022-07-05T14:29:37;3.05;;;0.85;;
69991;SDS011;57332;51.320;-0.580;2022-07-05T14:32:05;1.45;;;0.82;;
69991;SDS011;57332;51.320;-0.580;2022-07-05T14:34:32;2.33;;;0.90;;
69991;SDS011;57332;51.320;-0.580;2022-07-05T14:36:59;1.67;;;0.80;;
69991;SDS011;57332;51.320;-0.580;2022-07-05T14:39:26;2.83;;;1.00;;
69991;SDS011;57332;51.320;-0.580;2022-07-05T14:41:53;1.95;;;0.90;;
69991;SDS011;57332;51.320;-0.580;2022-07-05T14:44:21;3.08;;;1.00;;
69991;SDS011;57332;51.320;-0.580;2022-07-05T14:46:51;1.60;;;0.80;;
69991;SDS011;57332;51.320;-0.580;2022-07-05T14:49:18;2.17;;;0.80;;
69991;SDS011;57332;51.320;-0.580;2022-07-05T14:51:45;1.40;;;0.60;;
69991;SDS011;57332;51.320;-0.580;2022-07-05T14:54:12;1.30;;;0.70;;
69991;SDS011;57332;51.320;-0.580;2022-07-05T14:56:41;1.88;;;0.82;;
69991;SDS011;57332;51.320;-0.580;2022-07-05T14:59:11;2.03;;;0.90;;
69991;SDS011;57332;51.320;-0.580;2022-07-05T15:01:38;1.33;;;0.90;;
69991;SDS011;57332;51.320;-0.580;2022-07-05T15:04:06;2.42;;;0.90;;
69991;SDS011;57332;51.320;-0.580;2022-07-05T15:06:33;1.88;;;0.70;;
69991;SDS011;57332;51.320;-0.580;2022-07-05T15:09:00;1.95;;;0.90;;
69991;SDS011;57332;51.320;-0.580;2022-07-05T15:11:27;3.08;;;0.90;;
69991;SDS011;57332;51.320;-0.580;2022-07-05T15:13:57;1.73;;;0.80;;
69991;SDS011;57332;51.320;-0.580;2022-07-05T15:16:24;1.60;;;0.82;;
69991;SDS011;57332;51.320;-0.580;2022-07-05T15:18:51;2.65;;;0.90;;